• Join FlightAware (Why Join?)
  • Login
  • US Flag 
12:12AM EDT


 

Airport Tracker/Info


-or-


 

Live Flight TrackerFlight Track Log ✈ LXJ525 ✈ 11-Jun-2013 ✈ KTEB - KCMA

Flight Track Log - Related Links

Times and Time Zones

All times are in EDT time to prevent confusion due to time zone crossing. See the LXJ525 flight status page for this flight to view local times or setup timezone preferences in your user account.

Time Position Orientation Groundspeed Altitude Reporting Facility
EDT Latitude Longitude Course Direction KTS MPH feet Rate Location/Type
09:58AM 40.8225 -74.1219 237° Southwest 187 215 1,500  Level New York Center
09:58AM 40.8167 -74.1500 255° West 190 219 1,500 1,080 Level New York TRACON
09:59AM 40.8167 -74.2167 270° West 208 239 3,100 2,460 Climbing New York TRACON
10:00AM 40.8167 -74.3000 270° West 250 288 6,500 3,600 Climbing New York TRACON
10:01AM 40.8167 -74.4000 270° West 254 292 10,300 3,300 Climbing New York TRACON
10:02AM 40.8167 -74.5000 270° West 287 330 13,200 2,520 Climbing New York TRACON
10:03AM 40.8134 -74.8232 237° Southwest  Level FlightAware Approximate
10:04AM 40.8100 -74.6586 267° West 308 354 16,800  Level New York Center
10:05AM 40.8094 -74.8067 270° West 350 403 18,800 2,160 Climbing New York Center
10:06AM 40.8067 -74.9408 268° West 365 420 21,200 2,460 Climbing New York Center
10:07AM 40.8061 -75.0753 270° West 365 420 23,700 2,460 Climbing New York Center
10:08AM 40.7867 -75.2028 259° West 365 420 26,200 2,100 Climbing New York Center
10:09AM 40.7519 -75.2992 245° Southwest 365 420 28,000 1,920 Climbing New York Center
10:10AM 40.7047 -75.4411 246° West 365 420 30,000 1,740 Climbing New York Center
10:11AM 40.6689 -75.5564 248° West 371 427 31,400 900 Climbing New York Center
10:12AM 40.6239 -75.6872 246° West 378 435 31,900 240 Climbing New York Center
10:13AM 40.5764 -75.8258 246° West 399 459 32,000  Climbing New York Center
10:14AM 40.5175 -75.9828 244° Southwest 434 499 32,000 600 Level New York Center
10:15AM 40.4578 -76.1528 245° Southwest 441 507 33,400 1,440 Climbing New York Center
10:16AM 40.4114 -76.2964 247° West 435 501 35,000 1,320 Climbing New York Center
10:17AM 40.3611 -76.4367 245° Southwest 430 495 36,100 1,020 Climbing New York Center
10:18AM 40.3231 -76.5753 250° West 430 495 37,100 960 Climbing New York Center
10:19AM 40.3008 -76.7286 259° West 425 489 38,100 960 Climbing New York Center
10:20AM 40.2783 -76.8817 259° West 431 496 39,100 960 Climbing New York Center
10:21AM 40.2581 -77.0322 260° West 426 490 40,000 420 Climbing New York Center
10:22AM 40.2331 -77.1850 258° West 426 490 40,000  Level New York Center
10:23AM 40.2122 -77.3381 260° West 426 490 40,000  Level New York Center
10:25AM 40.1683 -77.6269 259° West 440 506 40,000  Level Cleveland Center
10:26AM 40.1456 -77.7883 260° West 445 512 40,000  Level Cleveland Center
10:27AM 40.1347 -77.9517 265° West 451 519 40,000  Level Cleveland Center
10:28AM 40.1361 -78.1092 271° West 445 512 40,000  Level Cleveland Center
10:29AM 40.1375 -78.2692 271° West 445 512 40,000  Level Cleveland Center
10:30AM 40.1406 -78.4294 271° West 439 505 40,000  Level Cleveland Center
10:31AM 40.1436 -78.5869 272° West 439 505 40,000  Level Cleveland Center
10:32AM 40.1483 -78.7469 272° West 439 505 40,000  Level Cleveland Center
10:33AM 40.1508 -78.9044 271° West 439 505 40,000  Level Cleveland Center
10:34AM 40.1528 -79.0619 271° West 439 505 40,000  Level Cleveland Center
10:35AM 40.1550 -79.2222 271° West 439 505 40,000  Level Cleveland Center
10:36AM 40.1608 -79.3633 273° West 439 505 40,000  Level Cleveland Center
10:37AM 40.1603 -79.5208 270° West 439 505 40,000  Level Cleveland Center
10:38AM 40.1617 -79.6758 271° West 439 505 40,000  Level Cleveland Center
10:39AM 40.1628 -79.8333 271° West 434 499 40,000  Level Cleveland Center
10:40AM 40.1636 -80.0153 270° West 439 505 40,000  Level Cleveland Center
10:41AM 40.1644 -80.1756 270° West 444 511 40,000  Level Cleveland Center
10:42AM 40.1650 -80.3358 270° West 444 511 40,000  Level Cleveland Center
10:43AM 40.1672 -80.4961 271° West 444 511 40,000  Level Cleveland Center
10:44AM 40.1692 -80.6592 271° West 444 511 40,000  Level Cleveland Center
10:45AM 40.1692 -80.8167 270° West 444 511 40,000  Level Cleveland Center
10:47AM 40.1644 -81.1581 269° West 445 512 40,000  Level Indianapolis Center
10:48AM 40.1644 -81.3189 270° West 439 505 40,000  Level Indianapolis Center
10:49AM 40.1633 -81.4769 270° West 431 496 40,000  Level Indianapolis Center
10:50AM 40.1614 -81.6350 269° West 430 495 40,000  Level Indianapolis Center
10:51AM 40.1606 -81.8111 270° West 429 494 40,000  Level Indianapolis Center
10:52AM 40.1589 -81.9686 269° West 431 496 40,000  Level Indianapolis Center
10:53AM 40.1581 -82.1264 270° West 432 497 40,000  Level Indianapolis Center
10:54AM 40.1544 -82.2850 268° West 434 499 40,000  Level Indianapolis Center
10:55AM 40.1536 -82.4447 270° West 436 502 40,000 -60 Level Indianapolis Center
10:56AM 40.1508 -82.6036 269° West 435 501 39,900  Descending Indianapolis Center
10:57AM 40.1478 -82.7883 269° West 434 499 40,000  Climbing Indianapolis Center
10:58AM 40.1444 -82.9483 268° West 437 503 40,000  Level Indianapolis Center
10:59AM 40.1417 -83.1075 269° West 437 503 40,000  Level Indianapolis Center
11:00AM 40.1383 -83.2658 268° West 436 502 40,000  Level Indianapolis Center
11:01AM 40.1356 -83.4244 269° West 438 504 40,000  Level Indianapolis Center
11:02AM 40.1306 -83.5822 268° West 436 502 40,000  Level Indianapolis Center
11:03AM 40.1261 -83.7656 268° West 434 499 40,000  Level Indianapolis Center
11:04AM 40.1219 -83.9236 268° West 435 501 40,000  Level Indianapolis Center
11:05AM 40.1178 -84.0825 268° West 436 502 40,000  Level Indianapolis Center
11:06AM 40.1128 -84.2411 268° West 434 499 40,000  Level Indianapolis Center
11:07AM 40.1081 -84.4006 268° West 438 504 40,000  Level Indianapolis Center
11:08AM 40.1025 -84.5608 267° West 438 504 40,000  Level Indianapolis Center
11:09AM 40.0981 -84.7217 268° West 441 507 40,000  Level Indianapolis Center
11:11AM 40.0922 -84.8839 267° West 443 510 40,000  Level Indianapolis Center
11:12AM 40.0867 -85.0736 268° West 443 510 40,000  Level Indianapolis Center
11:13AM 40.0808 -85.2353 267° West 442 509 40,000  Level Indianapolis Center
11:14AM 40.0706 -85.4253 266° West 445 512 40,000 -60 Level Indianapolis Center
11:15AM 40.0642 -85.5850 267° West 441 507 39,900  Descending Indianapolis Center
11:16AM 40.0578 -85.7453 267° West 440 506 40,000  Climbing Indianapolis Center
11:17AM 40.0503 -85.9053 267° West 439 505 40,000  Level Indianapolis Center
11:18AM 40.0433 -86.0622 267° West 437 503 40,000  Level Indianapolis Center
11:19AM 40.0342 -86.2536 266° West 440 506 40,000  Level Indianapolis Center
11:20AM 40.0267 -86.4125 267° West 439 505 40,000  Level Indianapolis Center
11:21AM 40.0192 -86.5719 267° West 440 506 40,000  Level Indianapolis Center
11:22AM 40.0111 -86.7319 266° West 441 507 40,000  Level Indianapolis Center
11:23AM 40.0022 -86.8911 266° West 440 506 40,000  Level Indianapolis Center
11:24AM 39.9936 -87.0500 266° West 439 505 40,000  Level Indianapolis Center
11:25AM 39.9858 -87.2069 266° West 436 502 40,000  Level Indianapolis Center
11:26AM 39.9739 -87.3978 265° West 439 505 40,000  Level Indianapolis Center
11:27AM 39.9650 -87.5567 266° West 439 505 40,000  Level Indianapolis Center
11:28AM 39.9581 -87.6728 266° West 440 506 40,000  Level Chicago Center
11:29AM 39.9478 -87.8353 265° West 442 509 40,000  Level Chicago Center
11:30AM 39.9386 -87.9947 266° West 441 507 40,000  Level Chicago Center
11:31AM 39.9281 -88.1536 265° West 440 506 40,000  Level Chicago Center
11:32AM 39.9161 -88.3431 265° West 438 504 40,000  Level Chicago Center
11:33AM 39.9019 -88.5328 265° West 434 499 40,000  Level Kansas City Center
11:34AM 39.8953 -88.6564 266° West 434 499 40,000  Level Chicago Center
11:35AM 39.8839 -88.8136 265° West 436 502 40,000 120 Level Chicago Center
11:36AM 39.8728 -88.9714 265° West 438 504 40,300 660 Climbing Chicago Center
11:37AM 39.8617 -89.1272 265° West 432 497 41,400 1,020 Climbing Chicago Center
11:39AM 39.8489 -89.3167 265° West 430 495 42,700 660 Climbing Indianapolis Center
11:40AM 39.8347 -89.4933 264° West 422 486 43,000 120 Climbing Kansas City Center
11:41AM 39.8225 -89.6494 264° West 426 490 43,000  Level Kansas City Center
11:42AM 39.8089 -89.8114 264° West 441 507 43,000  Level Kansas City Center
11:43AM 39.7969 -89.9736 265° West 447 514 43,000  Level Kansas City Center
11:44AM 39.7842 -90.1364 264° West 450 518 43,000  Level Kansas City Center
11:45AM 39.7706 -90.2992 264° West 451 519 43,000  Level Kansas City Center
11:46AM 39.7564 -90.4600 264° West 450 518 43,000  Level Kansas City Center
11:47AM 39.7414 -90.6522 264° West 451 519 43,000  Level Kansas City Center
11:48AM 39.7275 -90.8100 264° West 446 513 43,000  Level Kansas City Center
11:49AM 39.7142 -90.9683 264° West 444 511 43,000  Level Kansas City Center
11:50AM 39.7011 -91.1244 264° West 440 506 43,000  Level Kansas City Center
11:51AM 39.6886 -91.2847 264° West 445 512 43,000  Level Kansas City Center
11:52AM 39.6742 -91.4550 264° West 444 511 43,000  Level Kansas City Center
11:54AM 39.6450 -91.8064 264° West 448 516 43,000  Level Kansas City Center
11:55AM 39.6319 -91.9653 264° West 447 514 43,000  Level Kansas City Center
11:56AM 39.6175 -92.1231 263° West 445 512 43,000  Level Kansas City Center
11:57AM 39.6044 -92.2833 264° West 446 513 43,000  Level Kansas City Center
11:58AM 39.5908 -92.4431 264° West 447 514 43,000  Level Kansas City Center
11:59AM 39.5767 -92.6022 263° West 447 514 43,000  Level Kansas City Center
12:00PM 39.5594 -92.7933 263° West 446 513 43,000  Level Kansas City Center
12:01PM 39.5447 -92.9519 263° West 446 513 43,000  Level Kansas City Center
12:02PM 39.5292 -93.1075 263° West 441 507 43,000  Level Kansas City Center
12:03PM 39.5133 -93.2642 263° West 440 506 43,000  Level Kansas City Center
12:04PM 39.4989 -93.4236 263° West 446 513 43,000  Level Kansas City Center
12:05PM 39.4800 -93.6133 263° West 445 512 43,000  Level Kansas City Center
12:07PM 39.4653 -93.7717 263° West 447 514 43,000  Level Kansas City Center
12:08PM 39.4503 -93.9242 263° West 447 514 43,000  Level Kansas City Center
12:09PM 39.4325 -94.1031 263° West 448 516 43,000  Level Kansas City Center
12:10PM 39.4172 -94.2553 263° West 446 513 43,000  Level Kansas City Center
12:11PM 39.3986 -94.4328 262° West 445 512 43,000  Level Kansas City Center
12:12PM 39.3836 -94.5811 263° West 438 504 43,000  Level Kansas City Center
12:13PM 39.3633 -94.7547 261° West 438 504 43,000  Level Kansas City Center
12:14PM 39.3478 -94.9025 262° West 437 503 43,000  Level Kansas City Center
12:15PM 39.3281 -95.0775 262° West 439 505 43,000  Level Kansas City Center
12:16PM 39.3103 -95.2403 262° West 436 502 43,000  Level Kansas City Center
12:17PM 39.2931 -95.3961 262° West 442 509 43,000  Level Kansas City Center
12:18PM 39.2761 -95.5422 262° West 438 504 43,000  Level Kansas City Center
12:19PM 39.2556 -95.7125 261° West 433 498 43,000  Level Kansas City Center
12:20PM 39.2378 -95.8589 261° West 433 498 43,000  Level Kansas City Center
12:21PM 39.2175 -96.0311 261° West 435 501 43,000  Level Kansas City Center
12:22PM 39.1986 -96.1789 261° West 437 503 43,000  Level Kansas City Center
12:23PM 39.1783 -96.3519 261° West 438 504 43,000  Level Kansas City Center
12:24PM 39.1600 -96.5011 261° West 440 506 43,000  Level Kansas City Center
12:25PM 39.1369 -96.6767 260° West 444 511 43,000  Level Kansas City Center
12:26PM 39.1172 -96.8256 260° West 441 507 43,000  Level Kansas City Center
12:27PM 39.0950 -96.9997 261° West 442 509 43,000  Level Kansas City Center
12:28PM 39.0761 -97.1489 261° West 442 509 43,000  Level Kansas City Center
12:29PM 39.0558 -97.3236 262° West 442 509 43,000  Level Kansas City Center
12:30PM 39.0358 -97.4725 260° West 442 509 43,000  Level Kansas City Center
12:31PM 39.0122 -97.6469 260° West 442 509 43,000  Level Kansas City Center
12:32PM 38.9928 -97.7942 260° West 437 503 43,000  Level Kansas City Center
12:33PM 38.9728 -97.9392 260° West 440 506 43,000  Level Kansas City Center
12:34PM 38.9469 -98.1225 260° West 437 503 43,000  Level Kansas City Center
12:35PM 38.9258 -98.2750 260° West 437 503 43,000  Level Kansas City Center
12:36PM 38.9039 -98.4283 260° West 439 505 43,000  Level Kansas City Center
12:38PM 38.8819 -98.5825 260° West 441 507 43,000  Level Kansas City Center
12:39PM 38.8597 -98.7381 260° West 444 511 43,000  Level Kansas City Center
12:40PM 38.8383 -98.8931 260° West 443 510 43,000  Level Kansas City Center
12:41PM 38.8117 -99.0781 260° West 441 507 43,000  Level Kansas City Center
12:42PM 38.7881 -99.2347 259° West 446 513 43,000  Level Kansas City Center
12:43PM 38.7656 -99.3869 259° West 440 506 43,000  Level Kansas City Center
12:44PM 38.7406 -99.5508 259° West 445 512 43,000  Level Kansas City Center
12:45PM 38.7142 -99.7231 259° West 445 512 43,000  Level Kansas City Center
12:46PM 38.6917 -99.8719 259° West 446 513 43,000  Level Kansas City Center
12:47PM 38.6642 -100.0433 258° West 443 510 43,000  Level Kansas City Center
12:48PM 38.6411 -100.1892 259° West 439 505 43,000  Level Kansas City Center
12:48PM 38.6292 -100.2600 258° West 438 504 43,000  Level Denver Center
12:49PM 38.6150 -100.3578 260° West 436 502 43,000  Level Kansas City Center
12:49PM 38.6028 -100.4286 258° West 435 501 43,000  Level Denver Center
12:50PM 38.5794 -100.5717 258° West 432 497 43,000  Level Denver Center
12:51PM 38.5644 -100.6683 259° West 432 497 43,000  Level Kansas City Center
12:52PM 38.5417 -100.8139 259° West 435 501 43,000  Level Kansas City Center
12:52PM 38.5294 -100.8856 258° West 437 503 43,000  Level Denver Center
12:54PM 38.5017 -101.0519 258° West 432 497 43,000  Level Denver Center
12:55PM 38.4781 -101.1950 258° West 433 498 43,000  Level Denver Center
12:56PM 38.4497 -101.3600 258° West 428 493 43,000  Level Denver Center
12:57PM 38.4250 -101.5042 258° West 434 499 43,000  Level Denver Center
12:58PM 38.3964 -101.6700 258° West 431 496 43,000  Level Denver Center
12:59PM 38.3714 -101.8147 258° West 437 503 43,000  Level Denver Center
01:00PM 38.3433 -101.9836 258° West 437 503 43,000  Level Denver Center
01:01PM 38.3167 -102.1278 257° West 437 503 43,000  Level Denver Center
01:02PM 38.2911 -102.2736 257° West 440 506 43,000  Level Denver Center
01:03PM 38.2614 -102.4417 257° West 438 504 43,000  Level Denver Center
01:04PM 38.2353 -102.5864 257° West 439 505 43,000  Level Denver Center
01:05PM 38.2044 -102.7542 257° West 437 503 43,000  Level Denver Center
01:06PM 38.1794 -102.8986 258° West 438 504 43,000  Level Denver Center
01:07PM 38.1489 -103.0639 257° West 433 498 43,000  Level Denver Center
01:08PM 38.1228 -103.2067 257° West 430 495 43,000  Level Denver Center
01:09PM 38.0922 -103.3714 257° West 430 495 43,000  Level Denver Center
01:10PM 38.0656 -103.5133 257° West 433 498 43,000  Level Denver Center
01:11PM 38.0350 -103.6783 257° West 433 498 43,000  Level Denver Center
01:12PM 38.0081 -103.8200 256° West 433 498 43,000  Level Denver Center
01:13PM 37.9750 -103.9844 256° West 433 498 43,000  Level Denver Center
01:14PM 37.9481 -104.1256 256° West 434 499 43,000  Level Denver Center
01:15PM 37.9161 -104.2911 256° West 436 502 43,000  Level Denver Center
01:16PM 37.8886 -104.4328 256° West 437 503 43,000  Level Denver Center
01:17PM 37.8547 -104.5983 256° West 436 502 43,000  Level Denver Center
01:18PM 37.8261 -104.7389 256° West 433 498 43,000  Level Denver Center
01:19PM 37.7942 -104.9028 256° West 432 497 43,000  Level Denver Center
01:20PM 37.7639 -105.0439 255° West 433 498 43,000  Level Denver Center
01:21PM 37.7311 -105.2075 256° West 431 496 43,000  Level Denver Center
01:22PM 37.7036 -105.3414 255° West 417 480 43,000  Level Denver Center
01:24PM 37.6711 -105.4981 255° West 413 475 43,000  Level Denver Center
01:25PM 37.6428 -105.6342 255° West 418 481 43,000  Level Denver Center
01:26PM 37.6083 -105.7939 255° West 422 486 43,000  Level Denver Center
01:27PM 37.5806 -105.9311 256° West 422 486 43,000  Level Denver Center
01:28PM 37.5481 -106.0864 255° West 427 491 43,000  Level Denver Center
01:29PM 37.5164 -106.2258 254° West 431 496 43,000  Level Denver Center
01:30PM 37.4850 -106.3800 256° West 409 471 43,000  Level Denver Center
01:31PM 37.4578 -106.5053 255° West 389 448 43,000  Level Denver Center
01:32PM 37.4244 -106.6508 254° West 389 448 43,000  Level Denver Center
01:33PM 37.3958 -106.7800 254° West 400 460 43,000  Level Denver Center
01:34PM 37.3614 -106.9383 255° West 419 482 43,000  Level Denver Center
01:35PM 37.3300 -107.0783 254° West 432 497 43,000  Level Denver Center
01:36PM 37.2942 -107.2425 255° West 437 503 43,000  Level Denver Center
01:37PM 37.2625 -107.3817 254° West 437 503 43,000  Level Denver Center
01:38PM 37.2250 -107.5428 254° West 433 498 43,000  Level Denver Center
01:39PM 37.1933 -107.6819 254° West 435 501 43,000  Level Denver Center
01:40PM 37.1561 -107.8450 254° West 436 502 43,000  Level Denver Center
01:41PM 37.1239 -107.9839 254° West 436 502 43,000  Level Denver Center
01:42PM 37.0875 -108.1478 254° West 437 503 43,000  Level Denver Center
01:43PM 37.0539 -108.2844 253° West 432 497 43,000  Level Denver Center
01:44PM 37.0153 -108.4478 254° West 437 503 43,000  Level Denver Center
01:45PM 36.9828 -108.5853 254° West 434 499 43,000  Level Denver Center
01:46PM 36.9469 -108.7419 254° West 425 489 43,000  Level Denver Center
01:47PM 36.9147 -108.8736 253° West 419 482 43,000  Level Denver Center
01:48PM 36.8781 -109.0272 253° West 417 480 43,000  Level Denver Center
01:49PM 36.8467 -109.1564 253° West 412 474 43,000  Level Denver Center
01:50PM 36.8097 -109.3072 253° West 410 472 43,000  Level Denver Center
01:51PM 36.7772 -109.4383 253° West 414 476 43,000  Level Denver Center
01:52PM 36.7383 -109.5936 253° West 421 484 43,000  Level Denver Center
01:53PM 36.7050 -109.7264 253° West 423 487 43,000  Level Denver Center
01:55PM 36.6694 -109.8792 254° West 415 478 43,000  Level Denver Center
01:56PM 36.6367 -110.0100 253° West 415 478 43,000  Level Denver Center
01:57PM 36.5994 -110.1503 252° West 409 471 43,000  Level Denver Center
01:58PM 36.5647 -110.2836 252° West 405 466 43,000  Level Denver Center
01:59PM 36.5325 -110.4142 253° West 399 459 43,000  Level Denver Center
02:00PM 36.4978 -110.5472 252° West 401 461 43,000  Level Denver Center
02:01PM 36.4639 -110.6797 252° West 402 463 43,000 -60 Level Denver Center
02:02PM 36.4211 -110.8400 252° West 405 466 42,900 -660 Descending Denver Center
02:03PM 36.3794 -111.0006 252° West 407 468 41,600 -1,080 Descending Denver Center
02:04PM 36.3447 -111.1367 252° West 411 473 40,500 -780 Descending Denver Center
02:05PM 36.3089 -111.2731 252° West 414 476 40,000 -300 Descending Denver Center
02:06PM 36.2711 -111.4069 251° West 412 474 40,000  Level Denver Center
02:07PM 36.2372 -111.5406 253° West 409 471 40,000  Level Denver Center
02:08PM 36.1931 -111.7039 252° West 414 476 40,000  Level Denver Center
02:09PM 36.1783 -111.7567 251° West 410 472 40,000  Level Los Angeles Center
02:10PM 36.1347 -111.9172 251° West 410 472 40,000  Level Los Angeles Center
02:11PM 36.1022 -112.0372 252° West 406 467 40,000  Level Los Angeles Center
02:12PM 36.0658 -112.1694 251° West 409 471 40,000  Level Los Angeles Center
02:13PM 36.0261 -112.3153 251° West 409 471 40,000  Level Los Angeles Center
02:14PM 35.9892 -112.4489 251° West 411 473 40,000  Level Los Angeles Center
02:15PM 35.9517 -112.5861 251° West 417 480 40,000  Level Los Angeles Center
02:16PM 35.9192 -112.7044 251° West 420 483 40,000  Level Los Angeles Center
02:17PM 35.8736 -112.8658 251° West 421 484 40,000  Level Los Angeles Center
02:18PM 35.8361 -112.9983 251° West 417 480 40,000  Level Los Angeles Center
02:19PM 35.7914 -113.1578 251° West 417 480 40,000  Level Los Angeles Center
02:20PM 35.7544 -113.2903 251° West 416 479 40,000  Level Los Angeles Center
02:21PM 35.7167 -113.4231 251° West 415 478 40,000  Level Los Angeles Center
02:22PM 35.6783 -113.5561 251° West 418 481 40,000  Level Los Angeles Center
02:23PM 35.6322 -113.7167 251° West 419 482 40,000  Level Los Angeles Center
02:24PM 35.5922 -113.8503 250° West 421 484 40,000  Level Los Angeles Center
02:25PM 35.5533 -113.9836 250° West 420 483 40,000  Level Los Angeles Center
02:26PM 35.5147 -114.1178 251° West 420 483 40,000  Level Los Angeles Center
02:27PM 35.4675 -114.2728 250° West 422 486 40,000  Level Los Angeles Center
02:28PM 35.4272 -114.4094 250° West 423 487 40,000 -480 Level Los Angeles Center
02:29PM 35.3897 -114.5422 251° West 415 478 39,100 -1,260 Descending Los Angeles Center
02:30PM 35.3494 -114.6703 249° West 402 463 37,500 -1,500 Descending Los Angeles Center
02:32PM 35.3114 -114.7956 250° West 394 453 36,000 -1,560 Descending Los Angeles Center
02:33PM 35.2658 -114.9514 250° West 402 463 34,300 -1,380 Descending Los Angeles Center
02:34PM 35.2256 -115.0803 249° West 405 466 33,300 -1,260 Descending Los Angeles Center
02:35PM 35.1869 -115.2125 250° West 409 471 31,800 -1,500 Descending Los Angeles Center
02:36PM 35.1472 -115.3389 249° West 419 482 30,300 -1,440 Descending Los Angeles Center
02:37PM 35.1053 -115.4739 249° West 426 490 28,900 -1,140 Descending Los Angeles Center
02:38PM 35.0572 -115.6364 250° West 425 489 28,000 -480 Descending Los Angeles Center
02:39PM 35.0164 -115.7681 249° West 418 481 28,000  Level Los Angeles Center
02:40PM 34.9747 -115.9003 249° West 417 480 28,000  Level Los Angeles Center
02:41PM 34.9322 -116.0311 248° West 417 480 28,000  Level Los Angeles Center
02:42PM 34.8906 -116.1625 249° West 417 480 28,000 -720 Level Los Angeles Center
02:43PM 34.8586 -116.2675 250° West 415 478 26,600 -1,920 Descending Los Angeles Center
02:44PM 34.8008 -116.4500 249° West 413 475 24,100 -1,440 Descending Los Angeles Center
02:45PM 34.7833 -116.5794 261° West 399 459 23,700 -1,260 Descending Los Angeles Center
02:46PM 34.7728 -116.7036 264° West 380 437 21,600 -1,560 Descending Los Angeles Center
02:47PM 34.7603 -116.8306 263° West 376 433 20,500 -780 Descending Los Angeles Center
02:48PM 34.7481 -116.9608 264° West 383 441 20,000 -360 Descending Los Angeles Center
02:49PM 34.7336 -117.0922 262° West 389 448 19,800 -720 Descending Los Angeles Center
02:50PM 34.7175 -117.2503 263° West 391 450 18,500 -1,080 Descending Los Angeles Center
02:51PM 34.7033 -117.3794 262° West 386 444 17,600 -840 Descending Los Angeles Center
02:52PM 34.6900 -117.5083 263° West 383 441 16,600 -1,020 Descending Los Angeles Center
02:53PM 34.6725 -117.6644 262° West 387 445 15,400 -1,020 Descending Los Angeles Center
02:54PM 34.6592 -117.7931 263° West 384 442 14,500 -960 Descending Los Angeles Center
02:56PM 34.6469 -117.9178 263° West 376 433 13,500 -1,020 Descending Los Angeles Center
02:57PM 34.6347 -118.0400 263° West 367 422 12,400 -1,800 Descending Los Angeles Center
02:58PM 34.6014 -118.1594 251° West 311 358 9,800 -2,160 Descending Los Angeles Center
02:59PM 34.5700 -118.2478 247° West 273 314 8,000 -900 Descending Los Angeles Center
03:00PM 34.5414 -118.3331 248° West 271 312 8,000  Level Los Angeles Center
03:01PM 34.5100 -118.4264 248° West 279 321 8,000  Level Los Angeles Center
03:02PM 34.4814 -118.5100 247° West 271 312 8,000 -300 Level Los Angeles Center
03:03PM 34.4406 -118.5669 229° Southwest 269 310 7,500 -780 Descending Los Angeles Center
03:03PM 34.3836 -118.6222 219° Southwest 275 316 6,700 -1,020 Descending Los Angeles Center
03:04PM 34.3731 -118.6461 242° Southwest 273 314 6,500 -900 Descending Los Angeles Center
03:05PM 34.3269 -118.7019 225° Southwest 267 307 5,500 -900 Descending Los Angeles Center
03:06PM 34.2697 -118.7589 219° Southwest 261 300 4,800 -900 Descending Los Angeles Center
03:07PM 34.2225 -118.8183 226° Southwest 257 296 4,000 -780 Descending Los Angeles Center
03:07PM 34.2219 -118.8383 268° West 252 290 3,900 -540 Descending Los Angeles Center
03:08PM 34.2150 -118.8911 261° West 231 266 3,500 -720 Descending Los Angeles Center
03:09PM 34.2197 -118.9600 275° West 190 219 2,700 -960 Descending Los Angeles Center
03:10PM 34.2156 -119.0186 265° West 162 186 1,600 -1,080 Descending Los Angeles Center
03:11PM 34.2122 -119.0611 265° West 111 128 600 -1,020 Descending Los Angeles Center
03:13PM 34.2000 -119.0833 256° West  Level FlightAware Approximate